createdAt,value
2022-08-17T00:00:43.402Z,4.35
2022-08-17T00:03:10.975Z,4.30
2022-08-17T00:05:45.932Z,4.13
2022-08-17T00:08:17.855Z,5.38
2022-08-17T00:10:47.506Z,4.72
2022-08-17T00:13:22.190Z,4.43
2022-08-17T00:15:50.861Z,5.40
2022-08-17T00:19:01.791Z,4.70
2022-08-17T00:21:10.903Z,4.43
2022-08-17T00:23:44.456Z,4.70
2022-08-17T00:26:43.999Z,4.85
2022-08-17T00:29:08.871Z,5.32
2022-08-17T00:31:38.607Z,4.68
2022-08-17T00:34:09.155Z,4.55
2022-08-17T00:36:38.013Z,4.68
2022-08-17T00:39:07.655Z,4.90
2022-08-17T00:41:35.906Z,5.25
2022-08-17T00:44:07.091Z,4.55
2022-08-17T00:46:40.332Z,4.55
2022-08-17T00:49:11.038Z,4.05
2022-08-17T00:51:46.524Z,4.45
2022-08-17T00:54:22.887Z,4.40
2022-08-17T00:56:58.243Z,4.95
2022-08-17T00:59:30.978Z,5.50
2022-08-17T01:02:00.285Z,5.55
2022-08-17T01:04:31.297Z,4.93
2022-08-17T01:07:02.632Z,5.03
2022-08-17T01:09:32.545Z,4.97
2022-08-17T01:12:01.482Z,5.47
2022-08-17T01:14:29.848Z,5.53
2022-08-17T01:17:00.283Z,6.00
2022-08-17T01:19:34.316Z,5.38
2022-08-17T01:22:10.472Z,5.22
2022-08-17T01:24:45.042Z,5.90
2022-08-17T01:27:15.611Z,4.93
2022-08-17T01:29:50.802Z,5.65
2022-08-17T01:32:20.319Z,5.07
2022-08-17T01:34:50.923Z,5.47
2022-08-17T01:37:22.291Z,4.88
2022-08-17T01:39:57.879Z,4.35
2022-08-17T01:42:38.973Z,5.13
2022-08-17T01:45:14.304Z,5.45
2022-08-17T01:47:42.696Z,4.75
2022-08-17T01:50:15.832Z,4.85
2022-08-17T01:52:44.728Z,5.47
2022-08-17T01:55:17.379Z,5.28
2022-08-17T01:57:46.392Z,5.38
2022-08-17T02:00:15.730Z,4.78
2022-08-17T02:02:45.948Z,5.53
2022-08-17T02:05:21.936Z,5.18
2022-08-17T02:07:59.879Z,4.72
2022-08-17T02:10:34.238Z,4.80
2022-08-17T02:13:04.198Z,4.47
2022-08-17T02:15:34.598Z,4.65
2022-08-17T02:18:03.114Z,5.00
2022-08-17T02:20:41.538Z,5.43
2022-08-17T02:23:14.400Z,5.05
2022-08-17T02:25:47.686Z,5.07
2022-08-17T02:28:16.245Z,5.13
2022-08-17T02:31:01.045Z,5.32
2022-08-17T02:33:37.194Z,4.93
2022-08-17T02:36:13.383Z,4.72
2022-08-17T02:38:43.148Z,4.75
2022-08-17T02:41:13.428Z,4.78
2022-08-17T02:43:42.382Z,4.50
2022-08-17T02:46:12.707Z,4.70
2022-08-17T02:48:41.064Z,5.00
2022-08-17T02:51:09.456Z,4.43
2022-08-17T02:53:37.746Z,4.45
2022-08-17T02:56:06.826Z,5.03
2022-08-17T02:58:36.550Z,5.35
2022-08-17T03:01:05.838Z,5.68
2022-08-17T03:03:34.472Z,4.97
2022-08-17T03:06:03.462Z,5.28
2022-08-17T03:08:32.320Z,4.90
2022-08-17T03:11:00.677Z,5.70
2022-08-17T03:13:29.129Z,5.82
2022-08-17T03:15:58.999Z,6.07
2022-08-17T03:18:28.079Z,5.53
2022-08-17T03:20:58.652Z,5.05
2022-08-17T03:23:29.560Z,5.00
2022-08-17T03:25:58.841Z,5.15
2022-08-17T03:28:28.432Z,6.03
2022-08-17T03:30:58.381Z,5.97
2022-08-17T03:33:26.661Z,5.53
2022-08-17T03:35:54.903Z,5.97
2022-08-17T03:38:23.411Z,6.40
2022-08-17T03:40:57.892Z,6.10
2022-08-17T03:43:31.595Z,5.55
2022-08-17T03:46:34.448Z,5.53
2022-08-17T03:49:24.427Z,5.22
2022-08-17T03:52:10.468Z,5.73
2022-08-17T03:54:56.451Z,6.03
2022-08-17T03:57:25.784Z,5.90
2022-08-17T03:59:54.437Z,6.03
2022-08-17T04:02:27.544Z,5.38
2022-08-17T04:04:57.767Z,5.72
2022-08-17T04:07:29.639Z,5.27
2022-08-17T04:09:59.445Z,6.20
2022-08-17T04:12:30.986Z,5.67
2022-08-17T04:14:59.997Z,6.32
2022-08-17T04:17:30.636Z,6.28
2022-08-17T04:19:59.037Z,6.22
2022-08-17T04:22:33.203Z,6.35
2022-08-17T04:25:07.285Z,6.57
2022-08-17T04:27:35.655Z,6.50
2022-08-17T04:30:07.078Z,6.40
2022-08-17T04:33:03.605Z,5.75
2022-08-17T04:35:38.398Z,5.70
2022-08-17T04:38:07.998Z,6.10
2022-08-17T04:40:54.208Z,5.63
2022-08-17T04:43:26.303Z,5.53
2022-08-17T04:45:58.087Z,5.80
2022-08-17T04:48:36.338Z,5.90
2022-08-17T04:51:10.791Z,5.55
2022-08-17T04:53:40.957Z,5.97
2022-08-17T04:56:11.813Z,6.25
2022-08-17T04:58:45.544Z,6.38
2022-08-17T05:01:14.344Z,5.97
2022-08-17T05:03:44.543Z,5.85
2022-08-17T05:06:12.932Z,6.30
2022-08-17T05:08:41.545Z,5.72
2022-08-17T05:11:10.240Z,6.28
2022-08-17T05:13:38.527Z,5.88
2022-08-17T05:16:09.052Z,6.28
2022-08-17T05:18:38.919Z,6.20
2022-08-17T05:21:08.760Z,6.15
2022-08-17T05:23:42.865Z,5.97
2022-08-17T05:26:24.783Z,6.03
2022-08-17T05:28:59.413Z,6.05
2022-08-17T05:31:29.443Z,6.35
2022-08-17T05:33:58.277Z,6.88
2022-08-17T05:36:43.660Z,8.45
2022-08-17T05:39:16.265Z,7.07
2022-08-17T05:41:48.056Z,6.88
2022-08-17T05:44:17.040Z,7.15
2022-08-17T05:46:50.113Z,7.30
2022-08-17T05:49:24.581Z,7.78
2022-08-17T05:52:14.874Z,6.70
2022-08-17T05:55:06.526Z,7.15
2022-08-17T05:57:53.342Z,7.80
2022-08-17T06:00:30.259Z,7.00
2022-08-17T06:03:20.318Z,7.75
2022-08-17T06:06:05.289Z,7.22
2022-08-17T06:08:41.761Z,7.68
2022-08-17T06:11:22.787Z,7.60
2022-08-17T06:14:14.422Z,7.22
2022-08-17T06:16:49.228Z,7.13
2022-08-17T06:19:21.765Z,7.43
2022-08-17T06:21:54.146Z,7.03
2022-08-17T06:24:29.866Z,7.70
2022-08-17T06:27:09.548Z,7.60
2022-08-17T06:29:47.406Z,7.25
2022-08-17T06:32:17.182Z,7.00
2022-08-17T06:34:47.489Z,6.45
2022-08-17T06:37:39.274Z,6.50
2022-08-17T06:40:45.612Z,5.95
2022-08-17T06:43:32.668Z,5.65
2022-08-17T06:46:07.814Z,5.80
2022-08-17T06:48:44.937Z,5.97
2022-08-17T06:51:23.300Z,5.38
2022-08-17T06:53:59.553Z,4.70
2022-08-17T06:56:53.221Z,4.60
2022-08-17T06:59:36.289Z,4.53
2022-08-17T07:02:52.431Z,4.45
2022-08-17T07:05:25.726Z,4.57
2022-08-17T07:08:02.812Z,4.07
2022-08-17T07:10:38.834Z,4.28
2022-08-17T07:13:39.522Z,3.70
2022-08-17T07:16:21.866Z,3.75
2022-08-17T07:18:52.971Z,4.10
2022-08-17T07:21:47.486Z,4.53
2022-08-17T07:24:33.155Z,4.20
2022-08-17T07:27:12.999Z,3.58
2022-08-17T07:29:48.901Z,3.58
2022-08-17T07:32:23.619Z,3.75
2022-08-17T07:35:16.458Z,3.78
2022-08-17T07:37:54.050Z,3.85
2022-08-17T07:40:28.362Z,3.70
2022-08-17T07:43:23.978Z,3.70
2022-08-17T07:46:23.761Z,3.53
2022-08-17T07:48:56.840Z,3.80
2022-08-17T07:51:30.140Z,3.55
2022-08-17T07:54:14.000Z,3.80
2022-08-17T07:56:47.568Z,3.50
2022-08-17T07:59:23.414Z,3.30
2022-08-17T08:02:31.782Z,3.20
2022-08-17T08:05:06.668Z,3.35
2022-08-17T08:07:42.642Z,3.28
2022-08-17T08:10:16.907Z,3.15
2022-08-17T08:12:48.577Z,3.65
2022-08-17T08:15:25.695Z,2.90
2022-08-17T08:17:59.320Z,3.00
2022-08-17T08:20:52.623Z,3.38
2022-08-17T08:23:36.233Z,2.80
2022-08-17T08:26:18.955Z,2.83
2022-08-17T08:28:54.667Z,2.90
2022-08-17T08:31:31.577Z,3.47
2022-08-17T08:34:44.461Z,2.90
2022-08-17T08:37:25.026Z,2.92
2022-08-17T08:40:11.083Z,3.35
2022-08-17T08:42:53.549Z,3.17
2022-08-17T08:45:30.557Z,2.80
2022-08-17T08:48:53.433Z,3.05
2022-08-17T08:51:20.910Z,2.83
2022-08-17T08:54:00.673Z,2.38
2022-08-17T08:56:38.708Z,2.58
2022-08-17T08:59:22.075Z,2.85
2022-08-17T09:02:04.799Z,3.10
2022-08-17T09:05:13.877Z,3.35
2022-08-17T09:07:58.554Z,2.88
2022-08-17T09:10:33.707Z,2.75
2022-08-17T09:13:14.529Z,2.83
2022-08-17T09:15:47.438Z,3.00
2022-08-17T09:19:00.389Z,2.90
2022-08-17T09:21:18.476Z,3.20
2022-08-17T09:23:59.998Z,2.78
2022-08-17T09:26:35.667Z,2.70
2022-08-17T09:29:11.018Z,2.63
2022-08-17T09:31:49.078Z,3.00
2022-08-17T09:34:32.144Z,2.35
2022-08-17T09:37:17.934Z,2.63
2022-08-17T09:40:00.370Z,2.70
2022-08-17T09:42:33.115Z,3.03
2022-08-17T09:45:17.835Z,2.30
2022-08-17T09:47:53.276Z,2.97
2022-08-17T09:51:05.496Z,2.60
2022-08-17T09:53:16.123Z,2.55
2022-08-17T09:55:59.958Z,2.70
2022-08-17T09:58:43.245Z,2.60
2022-08-17T10:01:31.758Z,2.60
2022-08-17T10:04:42.076Z,2.58
2022-08-17T10:07:18.806Z,2.65
2022-08-17T10:10:01.028Z,2.85
2022-08-17T10:12:46.494Z,2.50
2022-08-17T10:15:37.680Z,2.63
2022-08-17T10:18:31.916Z,2.72
2022-08-17T10:21:24.583Z,2.60
2022-08-17T10:24:18.573Z,2.42
2022-08-17T10:26:56.390Z,2.38
2022-08-17T10:29:38.208Z,2.53
2022-08-17T10:32:32.713Z,2.45
2022-08-17T10:35:19.741Z,21.20
2022-08-17T10:38:15.475Z,6.97
2022-08-17T10:40:51.356Z,2.78
2022-08-17T10:43:33.677Z,2.50
2022-08-17T10:46:30.821Z,2.70
2022-08-17T10:49:29.373Z,2.60
2022-08-17T10:52:00.166Z,3.10
2022-08-17T10:55:14.377Z,3.22
2022-08-17T10:57:45.864Z,3.60
2022-08-17T11:00:57.717Z,3.10
2022-08-17T11:03:28.630Z,2.78
2022-08-17T11:06:12.682Z,3.30
2022-08-17T11:09:21.015Z,3.17
2022-08-17T11:12:08.094Z,3.00
2022-08-17T11:14:59.537Z,3.05
2022-08-17T11:18:12.128Z,2.45
2022-08-17T11:21:14.650Z,2.17
2022-08-17T11:23:59.335Z,2.10
2022-08-17T11:26:32.017Z,2.38
2022-08-17T11:29:05.138Z,2.90
2022-08-17T11:31:39.870Z,2.42
2022-08-17T11:34:19.690Z,2.38
2022-08-17T11:37:40.828Z,2.60
2022-08-17T11:40:47.364Z,2.45
2022-08-17T11:43:33.387Z,2.40
2022-08-17T11:46:18.065Z,2.50
2022-08-17T11:49:18.921Z,2.50
2022-08-17T11:52:36.414Z,2.30
2022-08-17T11:55:34.049Z,2.40
2022-08-17T11:58:03.091Z,2.30
2022-08-17T12:00:57.193Z,2.25
2022-08-17T12:03:56.776Z,2.85
2022-08-17T12:06:46.668Z,2.50
2022-08-17T12:09:20.515Z,2.55
2022-08-17T12:12:12.480Z,2.80
2022-08-17T12:17:40.794Z,2.83
2022-08-17T12:20:30.622Z,2.85
2022-08-17T12:23:08.019Z,2.70
2022-08-17T12:25:42.842Z,2.40
2022-08-17T12:28:27.487Z,2.83
2022-08-17T12:30:57.573Z,2.90
2022-08-17T12:33:28.904Z,2.83
2022-08-17T12:36:00.672Z,2.80
2022-08-17T12:38:33.316Z,3.28
2022-08-17T12:41:25.372Z,2.80
2022-08-17T12:44:02.186Z,3.20
2022-08-17T12:46:34.916Z,2.85
2022-08-17T12:49:16.519Z,3.13
2022-08-17T12:51:46.641Z,2.70
2022-08-17T12:54:31.592Z,2.83
2022-08-17T12:57:06.547Z,3.03
2022-08-17T12:59:42.047Z,2.90
2022-08-17T13:02:22.101Z,2.58
2022-08-17T13:04:51.082Z,2.45
2022-08-17T13:07:32.752Z,2.50
2022-08-17T13:10:01.131Z,2.60
2022-08-17T13:12:32.817Z,2.25
2022-08-17T13:15:03.161Z,3.55
2022-08-17T13:17:36.131Z,6.40
2022-08-17T13:20:07.308Z,2.53
2022-08-17T13:22:35.960Z,2.35
2022-08-17T13:25:09.419Z,2.67
2022-08-17T13:27:38.338Z,3.08
2022-08-17T13:30:14.928Z,2.92
2022-08-17T13:32:46.545Z,2.35
2022-08-17T13:35:41.156Z,2.88
2022-08-17T13:38:13.602Z,2.65
2022-08-17T13:40:51.965Z,2.72
2022-08-17T13:43:44.676Z,2.60
2022-08-17T13:46:22.925Z,2.50
2022-08-17T13:49:01.570Z,2.95
2022-08-17T13:51:36.019Z,2.88
2022-08-17T13:54:24.906Z,2.88
2022-08-17T13:57:01.466Z,2.85
2022-08-17T13:59:55.268Z,2.70
2022-08-17T14:02:28.542Z,2.50
2022-08-17T14:04:58.530Z,2.55
2022-08-17T14:07:36.273Z,2.67
2022-08-17T14:10:12.105Z,2.47
2022-08-17T14:12:42.767Z,2.70
2022-08-17T14:15:14.741Z,6.40
2022-08-17T14:17:44.416Z,2.97
2022-08-17T14:20:14.608Z,2.70
2022-08-17T14:22:48.335Z,2.58
2022-08-17T14:25:20.883Z,2.45
2022-08-17T14:27:52.908Z,3.10
2022-08-17T14:30:25.305Z,2.30
2022-08-17T14:32:58.118Z,2.50
2022-08-17T14:35:29.229Z,2.50
2022-08-17T14:37:58.454Z,2.47
2022-08-17T14:40:28.061Z,2.40
2022-08-17T14:42:57.698Z,2.50
2022-08-17T14:45:30.206Z,3.03
2022-08-17T14:48:05.798Z,2.47
2022-08-17T14:50:36.025Z,2.67
2022-08-17T14:53:06.774Z,3.30
2022-08-17T14:55:36.882Z,2.95
2022-08-17T14:58:05.166Z,2.45
2022-08-17T15:00:33.961Z,2.60
2022-08-17T15:03:04.601Z,2.72
2022-08-17T15:05:35.462Z,2.58
2022-08-17T15:08:05.639Z,2.38
2022-08-17T15:10:34.779Z,2.70
2022-08-17T15:13:03.478Z,2.50
2022-08-17T15:15:32.016Z,2.63
2022-08-17T15:18:01.108Z,2.60
2022-08-17T15:20:31.336Z,2.47
2022-08-17T15:22:59.808Z,2.45
2022-08-17T15:25:31.732Z,2.90
2022-08-17T15:28:01.430Z,2.63
2022-08-17T15:30:30.757Z,2.70
2022-08-17T15:33:00.653Z,2.40
2022-08-17T15:35:34.012Z,2.35
2022-08-17T15:38:11.070Z,2.40
2022-08-17T15:40:43.510Z,2.78
2022-08-17T15:43:15.517Z,2.65
2022-08-17T15:45:44.443Z,2.67
2022-08-17T15:48:25.038Z,2.60
2022-08-17T15:50:55.124Z,2.40
2022-08-17T15:53:23.347Z,2.42
2022-08-17T15:55:51.599Z,2.70
2022-08-17T15:58:20.944Z,2.35
2022-08-17T16:01:17.158Z,2.60
2022-08-17T16:04:04.716Z,2.65
2022-08-17T16:06:36.941Z,2.78
2022-08-17T16:09:05.408Z,2.60
2022-08-17T16:11:33.637Z,2.45
2022-08-17T16:14:02.282Z,2.55
2022-08-17T16:16:31.372Z,2.40
2022-08-17T16:18:59.721Z,2.70
2022-08-17T16:21:29.987Z,2.72
2022-08-17T16:24:13.554Z,2.95
2022-08-17T16:26:43.434Z,2.40
2022-08-17T16:29:11.705Z,2.50
2022-08-17T16:31:41.877Z,2.20
2022-08-17T16:34:17.946Z,2.78
2022-08-17T16:36:55.539Z,2.58
2022-08-17T16:39:27.635Z,2.75
2022-08-17T16:41:56.331Z,2.63
2022-08-17T16:44:25.837Z,2.53
2022-08-17T16:46:54.188Z,2.75
2022-08-17T16:49:29.645Z,2.55
2022-08-17T16:52:11.181Z,2.97
2022-08-17T16:54:43.843Z,2.60
2022-08-17T16:57:13.344Z,2.65
2022-08-17T16:59:44.876Z,2.60
2022-08-17T17:02:17.647Z,3.03
2022-08-17T17:04:53.783Z,2.88
2022-08-17T17:07:41.349Z,2.60
2022-08-17T17:10:18.063Z,2.67
2022-08-17T17:13:02.071Z,2.70
2022-08-17T17:15:48.296Z,2.60
2022-08-17T17:18:17.860Z,2.45
2022-08-17T17:20:56.252Z,2.95
2022-08-17T17:23:44.234Z,2.90
2022-08-17T17:26:44.254Z,2.70
2022-08-17T17:29:35.786Z,2.78
2022-08-17T17:32:22.357Z,2.97
2022-08-17T17:35:06.842Z,2.38
2022-08-17T17:37:37.745Z,2.67
2022-08-17T17:40:14.709Z,2.90
2022-08-17T17:42:45.625Z,2.55
2022-08-17T17:45:21.498Z,2.88
2022-08-17T17:47:50.782Z,2.60
2022-08-17T17:50:29.270Z,3.00
2022-08-17T17:53:04.658Z,2.90
2022-08-17T17:55:45.127Z,2.85
2022-08-17T17:58:39.792Z,2.80
2022-08-17T18:01:26.907Z,2.70
2022-08-17T18:04:20.474Z,2.97
2022-08-17T18:07:04.044Z,3.20
2022-08-17T18:10:05.172Z,2.85
2022-08-17T18:12:58.792Z,2.60
2022-08-17T18:15:34.027Z,2.65
2022-08-17T18:18:37.886Z,3.30
2022-08-17T18:21:19.433Z,2.78
2022-08-17T18:24:01.535Z,3.13
2022-08-17T18:26:47.216Z,2.50
2022-08-17T18:29:27.005Z,2.45
2022-08-17T18:32:23.608Z,3.08
2022-08-17T18:34:55.237Z,2.67
2022-08-17T18:37:42.667Z,3.10
2022-08-17T18:40:37.567Z,3.20
2022-08-17T18:43:15.055Z,2.90
2022-08-17T18:45:48.410Z,3.38
2022-08-17T18:48:33.057Z,3.03
2022-08-17T18:51:26.486Z,3.08
2022-08-17T18:54:23.999Z,3.40
2022-08-17T18:56:58.025Z,3.28
2022-08-17T18:59:39.210Z,3.15
2022-08-17T19:02:43.822Z,3.20
2022-08-17T19:05:39.983Z,3.00
2022-08-17T19:08:22.941Z,3.58
2022-08-17T19:10:56.154Z,2.90
2022-08-17T19:13:32.078Z,3.22
2022-08-17T19:16:14.206Z,3.13
2022-08-17T19:18:50.260Z,2.80
2022-08-17T19:21:25.344Z,2.88
2022-08-17T19:24:00.032Z,3.10
2022-08-17T19:26:53.978Z,2.70
2022-08-17T19:29:26.567Z,3.28
2022-08-17T19:31:58.442Z,2.85
2022-08-17T19:34:33.515Z,2.70
2022-08-17T19:37:10.887Z,2.75
2022-08-17T19:39:49.921Z,2.47
2022-08-17T19:42:32.484Z,2.83
2022-08-17T19:45:11.711Z,2.72
2022-08-17T19:47:55.140Z,3.33
2022-08-17T19:50:39.094Z,3.25
2022-08-17T19:53:36.674Z,3.15
2022-08-17T19:56:22.501Z,3.30
2022-08-17T19:59:01.198Z,2.92
2022-08-17T20:02:08.025Z,2.78
2022-08-17T20:04:44.291Z,2.90
2022-08-17T20:07:23.759Z,2.55
2022-08-17T20:10:00.454Z,3.08
2022-08-17T20:12:34.470Z,2.90
2022-08-17T20:15:08.844Z,2.70
2022-08-17T20:17:41.697Z,2.80
2022-08-17T20:20:23.361Z,3.22
2022-08-17T20:22:59.348Z,2.65
2022-08-17T20:25:45.954Z,3.00
2022-08-17T20:28:24.099Z,2.95
2022-08-17T20:30:53.537Z,3.58
2022-08-17T20:33:29.232Z,3.58
2022-08-17T20:36:18.120Z,3.30
2022-08-17T20:38:52.538Z,3.17
2022-08-17T20:41:24.694Z,3.33
2022-08-17T20:44:05.747Z,2.83
2022-08-17T20:46:54.468Z,3.10
2022-08-17T20:49:31.398Z,2.58
2022-08-17T20:52:07.644Z,2.88
2022-08-17T20:54:50.625Z,2.78
2022-08-17T20:57:48.906Z,3.15
2022-08-17T21:00:44.811Z,3.15
2022-08-17T21:03:56.102Z,3.28
2022-08-17T21:06:26.223Z,2.97
2022-08-17T21:08:59.413Z,3.08
2022-08-17T21:12:04.044Z,2.85
2022-08-17T21:14:57.465Z,3.40
2022-08-17T21:17:49.818Z,2.47
2022-08-17T21:20:40.831Z,2.90
2022-08-17T21:23:33.871Z,2.92
2022-08-17T21:26:30.581Z,2.97
2022-08-17T21:29:31.753Z,3.28
2022-08-17T21:32:24.199Z,3.22
2022-08-17T21:35:25.005Z,2.95
2022-08-17T21:38:00.025Z,3.05
2022-08-17T21:40:31.635Z,3.63
2022-08-17T21:43:16.808Z,3.25
2022-08-17T21:45:56.708Z,3.80
2022-08-17T21:48:28.715Z,3.55
2022-08-17T21:51:08.939Z,3.35
2022-08-17T21:53:44.468Z,3.33
2022-08-17T21:56:22.597Z,3.22
2022-08-17T21:58:58.734Z,2.75
2022-08-17T22:01:34.370Z,3.10
2022-08-17T22:04:08.688Z,3.40
2022-08-17T22:06:42.268Z,2.70
2022-08-17T22:09:29.669Z,2.90
2022-08-17T22:12:06.306Z,2.88
2022-08-17T22:14:52.607Z,3.00
2022-08-17T22:17:26.078Z,3.28
2022-08-17T22:19:59.780Z,3.00
2022-08-17T22:22:35.295Z,3.25
2022-08-17T22:25:07.348Z,3.25
2022-08-17T22:27:48.657Z,3.55
2022-08-17T22:30:35.146Z,3.20
2022-08-17T22:33:36.668Z,3.45
2022-08-17T22:36:29.114Z,3.42
2022-08-17T22:39:00.644Z,3.70
2022-08-17T22:41:53.254Z,3.78
2022-08-17T22:44:25.719Z,4.50
2022-08-17T22:47:03.067Z,3.80
2022-08-17T22:49:53.405Z,3.65
2022-08-17T22:52:33.395Z,3.90
2022-08-17T22:55:25.193Z,3.47
2022-08-17T22:58:11.064Z,3.80
2022-08-17T23:00:42.563Z,3.40
2022-08-17T23:03:17.786Z,4.18
2022-08-17T23:06:03.441Z,3.97
2022-08-17T23:08:34.106Z,4.50
2022-08-17T23:11:02.457Z,5.00
2022-08-17T23:13:33.536Z,4.55
2022-08-17T23:16:02.823Z,4.88
2022-08-17T23:18:31.104Z,5.13
2022-08-17T23:21:01.905Z,4.80
2022-08-17T23:23:31.564Z,5.35
2022-08-17T23:25:59.800Z,4.55
2022-08-17T23:28:28.552Z,5.65
2022-08-17T23:30:56.853Z,5.53
2022-08-17T23:33:31.479Z,5.18
2022-08-17T23:36:01.374Z,5.18
2022-08-17T23:38:31.826Z,5.68
2022-08-17T23:41:02.972Z,5.32
2022-08-17T23:43:31.468Z,5.15
2022-08-17T23:46:03.639Z,5.50
2022-08-17T23:48:36.801Z,5.40
2022-08-17T23:51:11.984Z,6.50
2022-08-17T23:53:47.344Z,6.05
2022-08-17T23:56:16.807Z,6.15
2022-08-17T23:58:45.807Z,6.40
